Time;durP1;ratioP1;P1;durP2;ratioP2;P2;SDS_P1;SDS_P2;PMS_P1;PMS_P2;Temp;Humidity;BMP_temperature;BMP_pressure;BME280_temperature;BME280_humidity;BME280_pressure;Samples;Min_cycle;Max_cycle;Signal;HPM_P1;HPM_P2
2023/06/27 00:00:22;;;;;;;10.15;6.78;;;;;;;20.03;69.84;94557.69;4208740;28;20101;-56
2023/06/27 00:02:26;;;;;;;10.43;6.85;;;;;;;20.05;69.85;94563.63;4205771;28;20048;-57
2023/06/27 00:04:28;;;;;;;8.55;6.95;;;;;;;20.05;69.85;94556.44;4201086;28;20048;-57
2023/06/27 00:06:30;;;;;;;9.32;6.50;;;;;;;20.04;69.94;94552.16;4205289;28;20055;-56
2023/06/27 00:08:32;;;;;;;9.75;6.90;;;;;;;20.01;69.88;94557.91;4203363;28;20048;-57
2023/06/27 00:10:34;;;;;;;9.65;6.40;;;;;;;20.01;69.67;94555.25;4208241;28;20044;-57
2023/06/27 00:12:36;;;;;;;10.88;6.78;;;;;;;20.01;69.33;94557.91;4209790;28;20051;-57
2023/06/27 00:14:38;;;;;;;8.27;6.53;;;;;;;20.04;69.38;94554.00;4201227;28;20075;-57
2023/06/27 00:16:40;;;;;;;10.73;6.43;;;;;;;20.07;68.84;94552.75;4210789;28;20048;-57
2023/06/27 00:18:47;;;;;;;8.77;6.03;;;;;;;20.03;69.04;94552.38;4209477;28;20048;-58
2023/06/27 00:20:51;;;;;;;6.88;6.18;;;;;;;20.02;69.24;94543.56;4206578;28;20505;-59
2023/06/27 00:22:52;;;;;;;8.27;6.10;;;;;;;20.04;69.07;94551.34;4205273;28;20148;-56
2023/06/27 00:24:55;;;;;;;8.55;6.15;;;;;;;20.04;69.12;94546.81;4209931;28;20049;-54
2023/06/27 00:26:57;;;;;;;11.65;6.82;;;;;;;20.01;69.24;94547.28;4206002;28;20518;-58
2023/06/27 00:28:59;;;;;;;8.27;6.80;;;;;;;20.01;69.29;94546.47;4212091;28;20425;-60
2023/06/27 00:31:01;;;;;;;9.07;6.72;;;;;;;19.94;69.06;94546.56;4210644;28;20055;-59
2023/06/27 00:33:03;;;;;;;10.38;5.45;;;;;;;19.88;68.94;94547.44;4206526;28;20413;-58
2023/06/27 00:35:05;;;;;;;8.45;5.70;;;;;;;19.84;68.84;94552.38;4210379;28;20056;-58
2023/06/27 00:37:07;;;;;;;11.80;6.05;;;;;;;19.76;68.90;94552.63;4208663;28;20096;-57
2023/06/27 00:39:09;;;;;;;6.07;5.45;;;;;;;19.68;68.65;94546.75;4208470;28;20135;-56
2023/06/27 00:41:11;;;;;;;9.80;6.03;;;;;;;19.63;68.94;94545.56;4202416;28;20055;-56
2023/06/27 00:43:13;;;;;;;10.13;6.30;;;;;;;19.60;68.56;94542.56;4206009;28;20051;-57
2023/06/27 00:45:14;;;;;;;8.82;5.95;;;;;;;19.56;68.69;94542.19;4198415;28;20055;-59
2023/06/27 00:47:16;;;;;;;8.15;5.82;;;;;;;19.56;68.42;94544.03;4208778;28;20253;-57
2023/06/27 00:49:18;;;;;;;9.63;5.10;;;;;;;19.56;68.01;94541.38;4205486;28;20051;-59
2023/06/27 00:51:20;;;;;;;8.45;5.38;;;;;;;19.53;67.71;94539.13;4203418;28;20044;-57
2023/06/27 00:53:22;;;;;;;7.38;5.35;;;;;;;19.55;67.49;94542.38;4197963;28;20044;-59
2023/06/27 00:55:24;;;;;;;8.65;5.53;;;;;;;19.50;67.29;94532.41;4200732;28;20456;-58
2023/06/27 00:57:26;;;;;;;11.27;5.57;;;;;;;19.51;66.92;94535.88;4203848;28;20048;-60
2023/06/27 00:59:28;;;;;;;8.57;5.70;;;;;;;19.47;66.75;94538.19;4208683;28;20364;-58
2023/06/27 01:01:31;;;;;;;7.72;5.85;;;;;;;19.44;66.85;94543.91;4209824;28;20470;-57
2023/06/27 01:03:32;;;;;;;7.18;5.30;;;;;;;19.40;66.98;94542.72;4210023;28;20071;-57
2023/06/27 01:05:35;;;;;;;6.45;5.47;;;;;;;19.37;67.06;94543.16;4210382;28;20048;-57
2023/06/27 01:07:42;;;;;;;7.57;5.53;;;;;;;19.39;66.98;94546.41;4211004;28;20052;-55
2023/06/27 01:09:48;;;;;;;7.72;4.93;;;;;;;19.41;66.96;94541.69;4196404;28;20129;-58
2023/06/27 01:11:58;;;;;;;7.00;5.47;;;;;;;19.42;66.73;94538.84;4199550;28;20539;-58
2023/06/27 01:14:03;;;;;;;6.57;4.80;;;;;;;19.46;66.68;94533.88;4200995;28;20233;-56
2023/06/27 01:16:05;;;;;;;9.20;5.72;;;;;;;19.48;66.49;94534.47;4207840;28;20081;-57
2023/06/27 01:18:09;;;;;;;6.90;5.03;;;;;;;19.44;66.17;94534.13;4209395;28;20044;-55
2023/06/27 01:20:12;;;;;;;7.13;5.10;;;;;;;19.44;65.80;94539.44;4211065;28;20128;-57
2023/06/27 01:22:17;;;;;;;6.60;5.20;;;;;;;19.46;66.29;94531.22;4199133;28;20073;-57
2023/06/27 01:24:19;;;;;;;7.40;5.50;;;;;;;19.52;65.90;94529.56;4205203;28;20587;-55
2023/06/27 01:26:21;;;;;;;6.20;4.90;;;;;;;19.48;65.33;94531.81;4204875;28;20060;-54
2023/06/27 01:28:23;;;;;;;8.63;5.15;;;;;;;19.53;65.01;94526.69;4205968;28;20041;-55
2023/06/27 01:30:24;;;;;;;9.18;5.10;;;;;;;19.53;65.32;94534.66;4204058;28;20048;-56
2023/06/27 01:32:49;;;;;;;8.68;5.40;;;;;;;19.55;65.04;94529.09;4208868;28;20094;-56
2023/06/27 01:35:06;;;;;;;7.95;5.35;;;;;;;19.52;65.32;94538.31;4195789;28;20084;-55
2023/06/27 01:37:10;;;;;;;10.18;5.20;;;;;;;19.46;65.38;94528.56;4204682;28;20052;-57
2023/06/27 01:39:16;;;;;;;7.55;5.22;;;;;;;19.43;65.53;94539.66;4209823;28;20109;-51
2023/06/27 01:41:20;;;;;;;8.63;5.10;;;;;;;19.44;65.85;94535.94;4193538;28;20080;-55
2023/06/27 01:43:22;;;;;;;7.28;4.70;;;;;;;19.40;65.65;94529.44;4204352;28;20143;-56
2023/06/27 01:45:24;;;;;;;7.85;5.38;;;;;;;19.37;66.04;94530.69;4209300;28;20489;-54
2023/06/27 01:47:26;;;;;;;7.53;4.88;;;;;;;19.28;66.07;94533.84;4198187;28;20136;-55
2023/06/27 01:49:28;;;;;;;8.07;5.35;;;;;;;19.26;66.22;94530.59;4198059;28;20589;-55
2023/06/27 01:51:30;;;;;;;10.25;4.90;;;;;;;19.28;66.19;94532.00;4207491;28;20044;-55
2023/06/27 01:53:31;;;;;;;8.30;4.68;;;;;;;19.32;66.23;94530.53;4209707;28;20113;-56
2023/06/27 01:55:33;;;;;;;8.40;4.90;;;;;;;19.40;66.29;94530.28;4199284;28;20052;-59
2023/06/27 01:57:35;;;;;;;6.85;5.20;;;;;;;19.46;65.94;94530.41;4207518;28;20047;-57
2023/06/27 01:59:37;;;;;;;6.43;5.38;;;;;;;19.48;65.95;94526.50;4199243;28;20040;-57
2023/06/27 02:01:38;;;;;;;10.20;5.80;;;;;;;19.49;66.46;94527.31;4203630;28;20059;-56
2023/06/27 02:03:40;;;;;;;8.50;5.40;;;;;;;19.51;66.83;94525.25;4203880;28;20044;-58
2023/06/27 02:05:42;;;;;;;8.02;5.45;;;;;;;19.53;66.91;94523.19;4206226;28;20048;-57
2023/06/27 02:07:43;;;;;;;7.03;5.32;;;;;;;19.50;67.24;94528.94;4200789;28;20044;-57
2023/06/27 02:09:45;;;;;;;12.52;5.55;;;;;;;19.46;67.33;94530.41;4204469;28;20052;-56
2023/06/27 02:11:47;;;;;;;9.77;5.55;;;;;;;19.44;67.53;94536.78;4203373;28;20052;-57
2023/06/27 02:13:49;;;;;;;7.78;5.63;;;;;;;19.47;67.59;94535.53;4203715;28;20048;-57
2023/06/27 02:15:50;;;;;;;9.50;5.82;;;;;;;19.43;68.23;94543.09;4209690;28;20105;-58
2023/06/27 02:17:52;;;;;;;11.82;6.07;;;;;;;19.39;68.75;94547.22;4209788;28;20171;-55
2023/06/27 02:19:54;;;;;;;13.43;6.15;;;;;;;19.32;68.94;94543.00;4204595;28;20058;-56
2023/06/27 02:21:56;;;;;;;7.68;5.60;;;;;;;19.27;69.18;94542.84;4194375;28;20120;-54
2023/06/27 02:23:58;;;;;;;8.10;6.03;;;;;;;19.28;69.12;94541.81;4193256;28;20051;-53
2023/06/27 02:26:02;;;;;;;9.95;5.32;;;;;;;19.28;69.71;94544.47;4205927;28;20486;-60
2023/06/27 02:28:05;;;;;;;10.20;5.60;;;;;;;19.25;69.94;94540.38;4208397;28;20131;-57
2023/06/27 02:30:07;;;;;;;8.38;5.82;;;;;;;19.28;70.08;94541.81;4210513;28;20148;-56
2023/06/27 02:32:09;;;;;;;9.80;6.05;;;;;;;19.27;70.21;94535.66;4201216;28;20045;-56
2023/06/27 02:34:11;;;;;;;8.50;5.30;;;;;;;19.27;70.15;94550.78;4194612;28;20049;-56
2023/06/27 02:36:12;;;;;;;7.43;5.15;;;;;;;19.29;70.37;94540.78;4196368;28;20052;-55
2023/06/27 02:38:14;;;;;;;6.45;5.60;;;;;;;19.29;70.29;94538.13;4209574;28;20040;-52
2023/06/27 02:40:16;;;;;;;7.43;6.40;;;;;;;19.28;70.11;94544.47;4209880;28;20054;-55
2023/06/27 02:42:18;;;;;;;9.30;6.72;;;;;;;19.26;70.27;94541.22;4198865;28;20117;-57
2023/06/27 02:44:19;;;;;;;10.25;6.53;;;;;;;19.26;70.36;94544.69;4196310;28;20052;-58
2023/06/27 02:46:21;;;;;;;11.23;6.68;;;;;;;19.24;71.02;94546.75;4196210;28;20063;-60
2023/06/27 02:48:23;;;;;;;14.48;6.38;;;;;;;19.22;71.15;94546.94;4194292;28;20192;-57
2023/06/27 02:50:24;;;;;;;11.05;6.93;;;;;;;19.18;71.05;94545.75;4198590;28;20056;-56
2023/06/27 02:52:26;;;;;;;9.20;6.35;;;;;;;19.10;71.06;94546.03;4206024;28;20134;-56
2023/06/27 02:54:28;;;;;;;8.00;6.10;;;;;;;19.03;71.29;94545.25;4202236;28;20486;-54
2023/06/27 02:56:29;;;;;;;10.55;5.97;;;;;;;18.87;70.48;94551.91;4208805;28;20048;-57
2023/06/27 02:58:32;;;;;;;13.30;6.38;;;;;;;18.62;70.70;94549.16;4200463;28;20060;-54
2023/06/27 03:00:33;;;;;;;9.45;7.10;;;;;;;18.53;71.62;94550.44;4209723;28;20056;-54
2023/06/27 03:02:35;;;;;;;16.10;6.53;;;;;;;18.54;72.38;94546.75;4202914;28;20052;-57
2023/06/27 03:04:37;;;;;;;14.02;7.18;;;;;;;18.53;71.93;94545.94;4206122;28;20044;-54
2023/06/27 03:06:39;;;;;;;9.52;6.95;;;;;;;18.46;71.61;94552.31;4210682;28;20048;-56
2023/06/27 03:08:41;;;;;;;12.50;7.03;;;;;;;18.35;72.26;94554.59;4208243;28;20075;-53
2023/06/27 03:10:42;;;;;;;10.43;7.20;;;;;;;18.44;72.66;94557.00;4198991;28;20052;-57
2023/06/27 03:12:44;;;;;;;12.02;6.72;;;;;;;18.53;71.66;94553.09;4206905;28;20055;-55
2023/06/27 03:14:46;;;;;;;9.82;6.35;;;;;;;18.57;70.35;94548.97;4203062;28;20101;-59
2023/06/27 03:16:47;;;;;;;10.30;5.53;;;;;;;18.69;69.96;94543.81;4203492;28;20052;-58
2023/06/27 03:18:49;;;;;;;10.70;6.28;;;;;;;18.81;69.72;94550.09;4212609;28;20048;-58
2023/06/27 03:20:51;;;;;;;10.48;6.13;;;;;;;18.92;68.82;94551.25;4210691;28;20048;-56
2023/06/27 03:22:52;;;;;;;7.82;6.18;;;;;;;19.02;68.02;94548.94;4211877;28;20401;-56
2023/06/27 03:24:54;;;;;;;10.13;6.38;;;;;;;19.03;68.15;94545.25;4211276;28;20057;-57
2023/06/27 03:26:56;;;;;;;7.25;5.93;;;;;;;19.08;68.07;94547.25;4212558;28;20539;-59
2023/06/27 03:28:57;;;;;;;11.43;6.00;;;;;;;19.15;67.88;94548.84;4212313;28;20413;-60
2023/06/27 03:30:59;;;;;;;9.43;6.32;;;;;;;19.19;67.25;94544.75;4213076;28;20052;-59
2023/06/27 03:33:00;;;;;;;10.00;6.28;;;;;;;19.27;67.12;94550.78;4196488;28;20045;-55
2023/06/27 03:35:03;;;;;;;8.77;5.93;;;;;;;19.31;66.81;94533.41;4198139;28;20053;-56
2023/06/27 03:37:05;;;;;;;7.70;6.13;;;;;;;19.34;66.59;94543.63;4197554;28;20052;-54
2023/06/27 03:39:07;;;;;;;11.85;6.32;;;;;;;19.40;66.79;94542.72;4199097;28;20055;-53
2023/06/27 03:41:09;;;;;;;8.40;5.95;;;;;;;19.46;67.21;94555.13;4197698;28;20063;-58
2023/06/27 03:43:12;;;;;;;9.05;6.78;;;;;;;19.50;67.69;94544.91;4197310;28;20078;-56
2023/06/27 03:45:14;;;;;;;11.10;6.10;;;;;;;19.50;67.54;94548.34;4198982;28;20425;-56
2023/06/27 03:47:15;;;;;;;9.40;6.53;;;;;;;19.53;67.79;94550.59;4199624;28;20056;-53
2023/06/27 03:49:17;;;;;;;10.15;6.30;;;;;;;19.55;67.82;94553.84;4197943;28;20055;-54
2023/06/27 03:51:19;;;;;;;10.93;6.88;;;;;;;19.60;67.83;94555.84;4204746;28;20048;-57
2023/06/27 03:53:20;;;;;;;10.45;6.55;;;;;;;19.54;67.45;94543.44;4201554;28;20098;-54
2023/06/27 03:55:22;;;;;;;12.13;7.50;;;;;;;19.37;67.76;94551.94;4197568;28;20060;-54
2023/06/27 03:57:24;;;;;;;12.85;7.55;;;;;;;19.16;68.25;94558.44;4201175;28;20046;-54
2023/06/27 03:59:25;;;;;;;13.50;7.68;;;;;;;19.08;68.37;94563.19;4204749;28;20114;-58
2023/06/27 04:01:27;;;;;;;15.30;8.18;;;;;;;19.00;68.76;94549.16;4208131;28;20514;-59
2023/06/27 04:03:29;;;;;;;8.30;7.20;;;;;;;18.92;69.90;94562.69;4200314;28;20044;-59
2023/06/27 04:05:31;;;;;;;11.38;7.50;;;;;;;19.02;70.29;94560.38;4206593;28;20044;-58
2023/06/27 04:07:32;;;;;;;12.45;8.00;;;;;;;19.00;70.35;94578.34;4197830;28;20406;-56
2023/06/27 04:09:34;;;;;;;14.23;8.30;;;;;;;18.94;70.17;94570.44;4199268;28;20082;-59
2023/06/27 04:11:36;;;;;;;9.88;7.57;;;;;;;18.93;70.68;94577.59;4198553;28;20080;-57
2023/06/27 04:13:38;;;;;;;11.82;7.75;;;;;;;18.86;71.15;94581.31;4204560;28;20550;-56
2023/06/27 04:15:39;;;;;;;11.82;7.88;;;;;;;18.98;71.44;94574.28;4211489;28;20055;-56
2023/06/27 04:17:44;;;;;;;11.85;8.52;;;;;;;19.11;71.30;94582.16;4211194;28;20406;-59
2023/06/27 04:19:46;;;;;;;10.15;7.90;;;;;;;19.19;70.47;94578.44;4211533;28;20146;-58
2023/06/27 04:21:48;;;;;;;11.50;8.80;;;;;;;19.23;69.94;94583.13;4202860;28;20053;-57
2023/06/27 04:23:50;;;;;;;12.63;8.38;;;;;;;19.26;70.43;94581.06;4207385;28;20121;-56
2023/06/27 04:26:02;;;;;;;10.60;7.60;;;;;;;19.27;70.29;94580.00;4209475;28;20048;-58
2023/06/27 04:28:04;;;;;;;16.15;8.05;;;;;;;19.39;70.62;94570.31;4209861;28;20050;-57
2023/06/27 04:30:07;;;;;;;11.00;8.88;;;;;;;19.55;70.46;94576.94;4211082;28;20074;-59
2023/06/27 04:32:08;;;;;;;13.32;9.20;;;;;;;19.63;69.77;94580.13;4211893;28;20127;-59
2023/06/27 04:34:11;;;;;;;11.13;8.25;;;;;;;19.78;69.67;94579.81;4209119;28;20048;-59
2023/06/27 04:36:15;;;;;;;11.57;9.43;;;;;;;19.93;69.50;94582.13;4200299;28;20515;-57
2023/06/27 04:38:18;;;;;;;13.30;9.40;;;;;;;20.02;69.33;94577.34;4203588;28;20052;-56
2023/06/27 04:40:20;;;;;;;13.20;9.98;;;;;;;20.09;69.55;94571.94;4196601;28;20052;-57
2023/06/27 04:42:21;;;;;;;16.13;9.80;;;;;;;20.21;69.37;94584.28;4196107;28;20509;-58
2023/06/27 04:44:23;;;;;;;17.60;10.18;;;;;;;20.32;68.88;94579.28;4201020;28;20127;-60
2023/06/27 04:46:29;;;;;;;13.38;10.02;;;;;;;20.41;68.49;94588.56;4212486;28;20048;-58
2023/06/27 04:48:30;;;;;;;15.25;10.48;;;;;;;20.45;68.10;94585.22;4200222;28;20121;-57
2023/06/27 04:50:32;;;;;;;18.88;10.65;;;;;;;20.54;68.07;94584.94;4208456;28;20058;-56
2023/06/27 04:52:34;;;;;;;12.80;9.98;;;;;;;20.58;67.88;94584.28;4203230;28;20040;-57
2023/06/27 04:54:36;;;;;;;18.13;10.45;;;;;;;20.66;67.64;94580.53;4195405;28;20518;-56
2023/06/27 04:56:37;;;;;;;14.93;10.32;;;;;;;20.71;67.45;94579.84;4196338;28;20529;-59
2023/06/27 04:58:39;;;;;;;13.32;10.68;;;;;;;20.76;67.34;94578.16;4196465;28;20051;-58
2023/06/27 05:00:41;;;;;;;16.17;10.75;;;;;;;20.84;67.40;94579.66;4196665;28;20076;-60
2023/06/27 05:02:43;;;;;;;14.50;10.32;;;;;;;20.91;67.35;94582.22;4196795;28;20076;-58
2023/06/27 05:04:50;;;;;;;20.67;12.27;;;;;;;20.94;67.16;94579.13;4204117;28;20059;-57
2023/06/27 05:06:53;;;;;;;20.10;11.90;;;;;;;20.95;67.75;94578.91;4195344;28;20102;-55
2023/06/27 05:08:54;;;;;;;21.73;11.80;;;;;;;20.98;67.38;94581.13;4195181;28;20076;-54
2023/06/27 05:10:56;;;;;;;12.73;10.73;;;;;;;20.89;66.63;94587.81;4195119;28;20052;-55
2023/06/27 05:12:58;;;;;;;15.35;11.23;;;;;;;20.76;66.91;94586.13;4199694;28;20040;-56
2023/06/27 05:15:00;;;;;;;17.27;11.45;;;;;;;20.61;67.51;94591.84;4206975;28;20101;-56
2023/06/27 05:17:02;;;;;;;15.88;12.27;;;;;;;20.56;67.77;94590.84;4204063;28;20051;-56
2023/06/27 05:19:04;;;;;;;20.92;11.80;;;;;;;20.55;68.24;94584.72;4199784;28;20068;-56
2023/06/27 05:21:05;;;;;;;19.50;11.63;;;;;;;20.16;68.60;94596.66;4197854;28;20055;-56
2023/06/27 05:23:07;;;;;;;17.17;11.15;;;;;;;20.09;68.81;94598.53;4206359;28;20507;-60
2023/06/27 05:25:09;;;;;;;17.90;11.90;;;;;;;19.97;69.07;94587.81;4208004;28;20040;-58
2023/06/27 05:27:10;;;;;;;17.48;12.18;;;;;;;19.88;69.05;94595.28;4210403;28;20048;-58
2023/06/27 05:29:12;;;;;;;18.73;11.93;;;;;;;19.98;69.28;94594.75;4210527;28;20082;-58
2023/06/27 05:31:14;;;;;;;19.58;11.55;;;;;;;19.93;69.00;94586.63;4209300;28;20101;-59
2023/06/27 05:33:15;;;;;;;19.95;12.50;;;;;;;20.02;69.13;94596.75;4206804;28;20090;-56
2023/06/27 05:35:17;;;;;;;15.35;12.30;;;;;;;20.12;68.61;94595.44;4205497;28;20052;-57
2023/06/27 05:37:19;;;;;;;16.27;11.85;;;;;;;20.25;68.38;94590.00;4210029;28;20052;-58
2023/06/27 05:39:21;;;;;;;15.13;10.77;;;;;;;20.36;68.22;94589.25;4208774;28;20486;-59
2023/06/27 05:41:23;;;;;;;19.23;11.05;;;;;;;20.49;67.45;94596.25;4210501;28;20074;-60
2023/06/27 05:43:25;;;;;;;15.20;9.43;;;;;;;20.57;65.83;94585.34;4211010;28;20078;-59
2023/06/27 05:45:26;;;;;;;16.05;10.63;;;;;;;20.73;65.77;94589.22;4208015;28;20048;-60
2023/06/27 05:47:28;;;;;;;11.88;9.57;;;;;;;20.91;65.27;94596.38;4198872;28;20136;-61
2023/06/27 05:49:30;;;;;;;10.55;9.43;;;;;;;21.09;64.99;94586.72;4201385;28;20678;-59
2023/06/27 05:51:32;;;;;;;16.67;10.80;;;;;;;21.15;64.41;94591.13;4202309;28;20048;-61
2023/06/27 05:53:33;;;;;;;15.48;9.60;;;;;;;21.06;63.73;94594.13;4197639;28;20052;-59
2023/06/27 05:55:35;;;;;;;18.80;10.48;;;;;;;21.12;64.46;94595.03;4205372;28;20052;-59
2023/06/27 05:57:37;;;;;;;12.20;8.80;;;;;;;21.25;64.40;94594.03;4197735;28;20097;-60
2023/06/27 05:59:38;;;;;;;19.05;7.20;;;;;;;20.95;60.72;94594.06;4207125;28;20067;-61
2023/06/27 06:01:40;;;;;;;12.73;8.25;;;;;;;20.95;61.89;94594.91;4196540;28;20055;-60
2023/06/27 06:03:43;;;;;;;11.63;8.60;;;;;;;21.09;61.95;94600.84;4198562;28;20044;-61
2023/06/27 06:05:45;;;;;;;12.07;8.35;;;;;;;20.91;61.62;94601.72;4195212;28;20414;-58
2023/06/27 06:07:47;;;;;;;11.57;8.10;;;;;;;21.00;62.20;94600.34;4204760;28;20054;-59
2023/06/27 06:09:48;;;;;;;16.80;9.07;;;;;;;21.02;61.66;94602.78;4198413;28;20067;-57
2023/06/27 06:11:50;;;;;;;13.20;9.00;;;;;;;21.03;63.23;94601.75;4210202;28;20048;-61
2023/06/27 06:13:51;;;;;;;13.57;8.07;;;;;;;21.07;63.20;94598.38;4210550;28;20067;-62
2023/06/27 06:15:53;;;;;;;13.02;8.38;;;;;;;21.23;62.48;94591.63;4208915;28;20335;-61
2023/06/27 06:17:55;;;;;;;11.38;9.05;;;;;;;20.80;63.33;94592.63;4209135;28;20070;-62
2023/06/27 06:19:56;;;;;;;13.32;8.55;;;;;;;20.82;64.21;94595.88;4200942;28;20055;-58
2023/06/27 06:21:58;;;;;;;13.75;9.38;;;;;;;21.02;63.74;94589.47;4201989;28;20052;-59
2023/06/27 06:24:00;;;;;;;11.90;7.88;;;;;;;21.18;62.08;94591.47;4195856;28;20055;-60
2023/06/27 06:26:01;;;;;;;14.52;8.30;;;;;;;21.27;62.08;94590.13;4208407;28;20048;-61
2023/06/27 06:28:03;;;;;;;13.13;8.68;;;;;;;21.32;62.52;94592.09;4210490;28;20086;-58
2023/06/27 06:30:05;;;;;;;11.68;7.50;;;;;;;21.56;61.80;94590.31;4210698;28;20047;-61
2023/06/27 06:32:07;;;;;;;12.60;8.80;;;;;;;21.48;61.23;94587.97;4211070;28;20397;-59
2023/06/27 06:34:09;;;;;;;14.60;8.55;;;;;;;21.59;61.21;94587.19;4196607;28;20204;-60
2023/06/27 06:36:12;;;;;;;13.20;7.75;;;;;;;21.70;60.63;94590.09;4199320;28;20048;-62
2023/06/27 06:38:14;;;;;;;9.70;7.35;;;;;;;21.33;61.29;94584.91;4204125;28;20059;-60
2023/06/27 06:40:15;;;;;;;10.63;7.28;;;;;;;21.15;61.44;94583.94;4197348;28;20052;-58
2023/06/27 06:42:17;;;;;;;11.10;6.80;;;;;;;21.43;60.98;94575.34;4199143;28;20052;-60
2023/06/27 06:44:19;;;;;;;10.02;7.10;;;;;;;21.58;60.39;94588.25;4213765;28;20175;-62
2023/06/27 06:46:21;;;;;;;10.02;6.63;;;;;;;21.39;60.89;94578.69;4205519;28;20048;-61
2023/06/27 06:48:23;;;;;;;11.52;7.43;;;;;;;21.31;61.47;94581.66;4209465;28;20059;-60
2023/06/27 06:50:25;;;;;;;9.10;6.78;;;;;;;21.41;61.48;94568.59;4208847;28;20097;-60
2023/06/27 06:52:27;;;;;;;12.32;6.85;;;;;;;21.62;61.65;94570.75;4208809;28;20571;-60
2023/06/27 06:54:28;;;;;;;9.20;6.97;;;;;;;21.88;60.38;94566.00;4213686;28;20536;-59
2023/06/27 06:56:30;;;;;;;12.07;7.45;;;;;;;21.92;60.21;94574.31;4203466;28;20463;-62
2023/06/27 06:58:32;;;;;;;10.13;6.82;;;;;;;21.78;60.01;94573.75;4212027;28;20176;-61
2023/06/27 07:00:33;;;;;;;11.77;7.28;;;;;;;21.68;60.78;94577.00;4210329;28;20095;-61
2023/06/27 07:02:35;;;;;;;12.25;7.65;;;;;;;21.87;61.17;94575.03;4200282;28;20051;-62
2023/06/27 07:04:37;;;;;;;10.55;6.65;;;;;;;21.98;60.78;94574.22;4200502;28;20079;-62
2023/06/27 07:06:38;;;;;;;9.35;7.05;;;;;;;22.25;59.68;94577.22;4202325;28;20048;-59
2023/06/27 07:08:40;;;;;;;12.60;7.22;;;;;;;22.24;59.42;94574.78;4208691;28;20053;-61
2023/06/27 07:10:42;;;;;;;11.25;6.97;;;;;;;21.95;59.66;94576.53;4206812;28;20442;-61
2023/06/27 07:12:43;;;;;;;12.02;6.97;;;;;;;21.84;60.65;94583.50;4212869;28;20465;-58
2023/06/27 07:14:46;;;;;;;16.42;9.88;;;;;;;21.92;60.66;94567.16;4199802;28;20093;-62
2023/06/27 07:16:47;;;;;;;16.23;9.23;;;;;;;21.96;60.73;94571.00;4205177;28;20097;-59
2023/06/27 07:18:49;;;;;;;12.35;8.63;;;;;;;22.13;60.48;94572.94;4205470;28;20048;-58
2023/06/27 07:20:51;;;;;;;10.93;7.25;;;;;;;22.40;59.90;94574.06;4198262;28;20045;-59
2023/06/27 07:22:53;;;;;;;13.10;7.10;;;;;;;22.69;59.36;94571.44;4202411;28;20113;-59
2023/06/27 07:24:54;;;;;;;11.10;7.15;;;;;;;22.56;58.45;94579.72;4207150;28;20510;-58
2023/06/27 07:26:56;;;;;;;24.80;7.78;;;;;;;22.27;59.02;94580.47;4212856;28;20052;-59
2023/06/27 07:28:58;;;;;;;28.30;8.95;;;;;;;22.32;58.69;94571.75;4213171;28;20052;-62
2023/06/27 07:30:59;;;;;;;16.10;8.00;;;;;;;22.59;58.04;94580.06;4201418;28;20056;-61
2023/06/27 07:33:01;;;;;;;9.18;6.82;;;;;;;22.82;57.73;94575.69;4199260;28;20148;-60
2023/06/27 07:35:04;;;;;;;16.80;7.55;;;;;;;22.59;56.90;94585.41;4212537;28;20477;-60
2023/06/27 07:37:06;;;;;;;17.20;8.75;;;;;;;22.39;58.24;94577.81;4201088;28;20391;-63
2023/06/27 07:39:08;;;;;;;9.40;7.28;;;;;;;22.66;58.52;94574.59;4210371;28;20117;-61
2023/06/27 07:41:10;;;;;;;30.80;10.98;;;;;;;22.82;58.12;94575.69;4212350;28;20103;-59
2023/06/27 07:43:12;;;;;;;27.92;8.48;;;;;;;22.77;57.70;94573.72;4207879;28;20045;-59
2023/06/27 07:45:13;;;;;;;21.98;11.52;;;;;;;22.78;56.08;94575.38;4207350;28;20328;-59
2023/06/27 07:47:15;;;;;;;15.07;8.07;;;;;;;22.74;56.51;94584.91;4211088;28;20048;-61
2023/06/27 07:49:17;;;;;;;12.23;6.75;;;;;;;22.46;57.18;94583.00;4209996;28;20040;-58
2023/06/27 07:51:18;;;;;;;16.70;7.72;;;;;;;22.60;57.32;94578.19;4199300;28;20465;-63
2023/06/27 07:53:20;;;;;;;9.32;6.90;;;;;;;22.87;57.41;94573.13;4209635;28;20105;-61
2023/06/27 07:55:22;;;;;;;11.68;6.63;;;;;;;22.90;57.52;94576.09;4200543;28;20582;-60
2023/06/27 07:57:24;;;;;;;14.00;7.07;;;;;;;23.03;56.16;94577.72;4206388;28;20067;-57
2023/06/27 07:59:26;;;;;;;9.43;6.45;;;;;;;23.26;55.59;94576.00;4217806;28;20459;-61
2023/06/27 08:01:27;;;;;;;12.20;6.63;;;;;;;23.48;55.50;94570.72;4214299;28;20083;-60
2023/06/27 08:03:29;;;;;;;11.13;6.38;;;;;;;23.11;55.28;94584.53;4209692;28;20040;-61
2023/06/27 08:05:34;;;;;;;13.30;6.78;;;;;;;23.23;54.49;94573.78;4201970;28;20044;-60
2023/06/27 08:07:36;;;;;;;8.68;5.88;;;;;;;23.17;54.73;94572.09;4205373;28;20063;-58
2023/06/27 08:09:38;;;;;;;8.00;6.28;;;;;;;23.04;54.76;94568.66;4211137;28;20090;-59
2023/06/27 08:11:39;;;;;;;12.57;6.63;;;;;;;23.24;55.14;94573.53;4200846;28;20460;-61
2023/06/27 08:13:41;;;;;;;7.90;5.78;;;;;;;23.58;54.00;94565.56;4206624;28;20064;-62
2023/06/27 08:15:43;;;;;;;6.95;5.88;;;;;;;23.89;52.96;94574.88;4209086;28;20052;-61
2023/06/27 08:17:45;;;;;;;7.95;6.07;;;;;;;23.84;51.35;94571.34;4212574;28;20494;-63
2023/06/27 08:19:46;;;;;;;11.90;6.20;;;;;;;23.82;52.72;94573.44;4208131;28;20044;-61
2023/06/27 08:21:48;;;;;;;6.80;5.35;;;;;;;23.81;51.79;94579.81;4197132;28;20048;-59
2023/06/27 08:23:50;;;;;;;11.10;5.63;;;;;;;23.57;50.72;94574.63;4197811;28;20045;-61
2023/06/27 08:25:51;;;;;;;9.73;5.40;;;;;;;23.37;50.04;94577.78;4211532;28;20056;-61
2023/06/27 08:27:53;;;;;;;10.13;5.03;;;;;;;23.67;49.79;94577.47;4211547;28;20450;-60
2023/06/27 08:29:55;;;;;;;7.03;5.05;;;;;;;23.76;49.75;94571.75;4212647;28;20052;-61
2023/06/27 08:31:59;;;;;;;10.93;6.03;;;;;;;23.94;49.67;94563.47;4212732;28;20134;-60
2023/06/27 08:34:01;;;;;;;9.57;5.70;;;;;;;24.11;50.19;94561.56;4212924;28;20131;-62
2023/06/27 08:36:02;;;;;;;8.90;5.55;;;;;;;24.29;49.63;94560.44;4199267;28;20044;-60
2023/06/27 08:38:04;;;;;;;10.43;5.60;;;;;;;24.33;48.30;94566.94;4212140;28;20051;-60
2023/06/27 08:40:09;;;;;;;10.52;5.35;;;;;;;24.27;48.81;94565.25;4204152;28;20059;-59
2023/06/27 08:42:10;;;;;;;6.78;5.32;;;;;;;24.27;48.72;94567.13;4197997;28;20080;-60
2023/06/27 08:44:13;;;;;;;12.55;5.43;;;;;;;24.21;48.76;94560.88;4199426;28;20048;-61
2023/06/27 08:46:17;;;;;;;8.30;5.20;;;;;;;24.37;48.04;94553.88;4208861;28;20044;-61
2023/06/27 08:48:19;;;;;;;7.28;5.10;;;;;;;24.57;47.50;94558.69;4211001;28;20090;-61
2023/06/27 08:50:22;;;;;;;6.00;4.82;;;;;;;24.47;47.98;94563.88;4200738;28;20055;-63
2023/06/27 08:52:24;;;;;;;7.28;5.63;;;;;;;24.47;49.24;94553.97;4209517;28;20421;-62
2023/06/27 08:54:38;;;;;;;7.28;5.60;;;;;;;24.80;48.57;94552.25;4202133;28;20045;-62
2023/06/27 08:56:40;;;;;;;8.20;5.30;;;;;;;25.01;47.99;94550.59;4207458;28;20130;-61
2023/06/27 08:58:45;;;;;;;8.45;5.22;;;;;;;25.23;48.28;94547.91;4199100;28;20097;-60
2023/06/27 09:00:47;;;;;;;9.15;5.50;;;;;;;25.32;47.62;94551.72;4197448;28;20045;-62
2023/06/27 09:02:49;;;;;;;8.98;5.05;;;;;;;25.26;47.05;94551.94;4196197;28;20045;-60
2023/06/27 09:04:51;;;;;;;7.57;4.57;;;;;;;25.17;47.40;94550.72;4205270;28;20094;-58
2023/06/27 09:06:54;;;;;;;5.43;4.07;;;;;;;25.36;46.08;94551.19;4205605;28;20307;-59
2023/06/27 09:08:56;;;;;;;9.30;4.68;;;;;;;25.45;45.01;94555.84;4204381;28;20121;-57
2023/06/27 09:10:58;;;;;;;16.08;5.90;;;;;;;25.53;45.49;94547.34;4209598;28;20138;-56
2023/06/27 09:13:01;;;;;;;6.88;4.50;;;;;;;25.47;46.26;94548.38;4208830;28;20444;-58
2023/06/27 09:15:04;;;;;;;5.80;4.45;;;;;;;25.60;46.08;94539.06;4209806;28;20626;-58
2023/06/27 09:17:05;;;;;;;5.65;4.20;;;;;;;25.79;45.42;94546.72;4212225;28;20055;-58
2023/06/27 09:19:07;;;;;;;7.10;4.30;;;;;;;25.94;44.83;94541.47;4200624;28;20080;-59
2023/06/27 09:21:09;;;;;;;8.60;4.63;;;;;;;26.10;44.39;94547.75;4208246;28;20732;-58
2023/06/27 09:23:11;;;;;;;9.23;4.65;;;;;;;26.10;43.32;94543.19;4196886;28;20414;-58
2023/06/27 09:25:14;;;;;;;5.55;4.10;;;;;;;26.21;43.61;94544.06;4202522;28;20048;-59
2023/06/27 09:27:29;;;;;;;4.82;3.83;;;;;;;26.38;44.27;94548.44;4203468;28;20063;-60
2023/06/27 09:29:34;;;;;;;9.15;4.28;;;;;;;26.48;43.97;94543.09;4208352;28;20155;-58